Time;durP1;ratioP1;P1;durP2;ratioP2;P2;SDS_P1;SDS_P2;PMS_P1;PMS_P2;Temp;Humidity;BMP_temperature;BMP_pressure;BME280_temperature;BME280_humidity;BME280_pressure;Samples;Min_cycle;Max_cycle;Signal;HPM_P1;HPM_P2
2022/07/15 00:02:11;;;;;;;1.90;1.80;;;19.90;69.10;;;20.41;52.51;95035.81;5046166;28;20549;-59
2022/07/15 00:04:38;;;;;;;3.53;2.40;;;20.00;69.40;;;20.39;52.34;95040.53;5046338;28;20539;-59
2022/07/15 00:07:06;;;;;;;7.30;3.40;;;19.90;69.50;;;20.37;52.62;95039.06;5044538;28;20472;-61
2022/07/15 00:12:19;;;;;;;9.83;2.53;;;19.90;69.80;;;20.32;52.10;95046.88;5045937;28;20514;-62
2022/07/15 00:14:46;;;;;;;2.03;1.90;;;19.80;69.60;;;20.29;52.39;95044.59;5045841;28;20870;-59
2022/07/15 00:17:14;;;;;;;2.00;1.90;;;19.80;69.50;;;20.26;52.94;95044.97;5043040;28;20529;-60
2022/07/15 00:19:41;;;;;;;1.80;1.60;;;19.80;69.80;;;20.23;52.25;95039.00;5046129;28;20844;-58
2022/07/15 00:22:08;;;;;;;7.07;1.80;;;19.80;70.00;;;20.21;52.41;95042.88;5045833;28;20471;-60
2022/07/15 00:24:36;;;;;;;4.77;1.73;;;19.70;69.80;;;20.20;52.34;95043.91;5045868;28;20525;-60
2022/07/15 00:27:03;;;;;;;3.10;1.70;;;19.70;69.80;;;20.17;52.79;95045.13;5045454;28;20499;-59
2022/07/15 00:29:32;;;;;;;5.00;1.77;;;19.70;69.70;;;20.16;52.07;95045.34;5045907;28;20464;-60
2022/07/15 00:31:59;;;;;;;4.60;1.60;;;19.70;69.60;;;20.13;52.08;95033.19;5044192;28;20467;-59
2022/07/15 00:34:27;;;;;;;3.40;1.67;;;19.60;69.40;;;20.13;52.38;95043.06;5045291;28;20516;-58
2022/07/15 00:36:54;;;;;;;1.50;1.40;;;19.60;69.40;;;20.12;52.18;95041.38;5044980;28;20972;-58
2022/07/15 00:39:21;;;;;;;2.17;1.60;;;19.60;69.30;;;20.10;51.86;95043.44;5043425;28;20521;-60
2022/07/15 00:41:48;;;;;;;2.50;1.63;;;19.60;69.40;;;20.07;52.39;95044.66;5045440;28;20480;-59
2022/07/15 00:44:16;;;;;;;7.60;1.53;;;19.60;69.60;;;20.05;52.33;95036.00;5045473;28;20456;-60
2022/07/15 00:46:44;;;;;;;5.47;1.97;;;19.60;69.70;;;20.04;52.09;95039.69;5045150;28;20479;-61
2022/07/15 00:49:11;;;;;;;3.50;2.10;;;19.60;69.80;;;20.01;52.37;95030.22;5044081;28;20957;-58
2022/07/15 00:51:42;;;;;;;2.70;1.50;;;19.50;69.50;;;19.99;52.67;95029.59;5045401;28;20472;-58
2022/07/15 00:54:10;;;;;;;4.67;2.10;;;19.50;69.80;;;19.98;52.15;95029.78;5044937;28;20479;-59
2022/07/15 00:56:39;;;;;;;3.87;1.70;;;19.50;69.80;;;19.96;51.82;95031.84;5045124;28;20494;-60
2022/07/15 00:59:07;;;;;;;2.00;1.57;;;19.50;69.40;;;19.91;52.22;95021.75;5043857;28;20448;-60
2022/07/15 01:01:34;;;;;;;3.40;1.37;;;19.40;69.40;;;19.88;52.59;95024.81;5043578;28;20479;-60
2022/07/15 01:04:04;;;;;;;8.47;1.23;;;19.40;70.00;;;19.87;52.27;95028.47;5043074;28;20698;-60
2022/07/15 01:06:31;;;;;;;5.33;1.77;;;19.40;70.00;;;19.84;52.65;95026.19;5044357;28;21004;-58
2022/07/15 01:08:59;;;;;;;1.73;1.63;;;19.40;70.10;;;19.81;52.51;95022.06;5045481;28;20554;-58
2022/07/15 01:11:26;;;;;;;1.87;1.50;;;19.40;70.00;;;19.80;52.62;95019.56;5042555;28;20468;-60
2022/07/15 01:13:54;;;;;;;2.90;1.73;;;19.30;70.70;;;19.76;52.98;95012.97;5044884;28;20496;-60
2022/07/15 01:16:21;;;;;;;1.87;1.77;;;19.30;71.20;;;19.78;53.40;95016.28;5044773;28;20549;-60
2022/07/15 01:18:49;;;;;;;12.63;2.50;;;19.30;71.20;;;19.75;53.32;95011.31;5043224;28;20455;-58
2022/07/15 01:21:17;;;;;;;6.93;1.90;;;19.30;71.40;;;19.75;53.38;95012.16;5042336;28;20476;-59
2022/07/15 01:23:44;;;;;;;3.87;2.07;;;19.30;71.40;;;19.73;52.94;95008.84;5044742;28;20452;-59
2022/07/15 01:26:11;;;;;;;5.03;1.83;;;19.30;71.50;;;19.71;52.98;95003.69;5044005;28;20561;-58
2022/07/15 01:28:39;;;;;;;6.97;1.97;;;19.30;71.50;;;19.71;53.05;95009.03;5044308;28;20466;-58
2022/07/15 01:31:06;;;;;;;4.20;1.70;;;19.30;71.70;;;19.68;53.91;95001.41;5047409;28;20464;-59
2022/07/15 01:33:33;;;;;;;2.07;1.90;;;19.20;72.40;;;19.66;53.34;94995.44;5049121;28;20586;-58
2022/07/15 01:36:01;;;;;;;1.87;1.67;;;19.20;72.30;;;19.66;54.09;94999.97;5047889;28;20472;-59
2022/07/15 01:38:30;;;;;;;1.80;1.70;;;19.20;72.50;;;19.64;53.82;95000.16;5048877;28;20459;-62
2022/07/15 01:40:57;;;;;;;5.60;1.70;;;19.20;72.40;;;19.60;53.71;95001.56;5048213;28;20601;-60
2022/07/15 01:43:24;;;;;;;3.20;2.17;;;19.20;72.50;;;19.57;53.85;95009.13;5048842;28;20917;-60
2022/07/15 01:45:51;;;;;;;13.67;1.70;;;19.10;72.30;;;19.55;53.79;95000.47;5048570;28;20545;-59
2022/07/15 01:51:03;;;;;;;1.80;1.70;;;19.10;72.30;;;19.47;54.24;95004.09;5045664;28;20601;-57
2022/07/15 01:53:32;;;;;;;2.00;1.90;;;19.00;72.20;;;19.46;53.62;95015.81;5048241;28;20463;-61
2022/07/15 01:55:59;;;;;;;5.40;1.63;;;19.00;72.70;;;19.43;53.88;95016.19;5048510;28;20533;-58
2022/07/15 01:58:26;;;;;;;3.20;1.67;;;19.00;73.10;;;19.42;54.36;95011.84;5048489;28;20455;-61
2022/07/15 02:00:53;;;;;;;1.77;1.50;;;19.00;73.30;;;19.39;54.35;95014.91;5048590;28;20525;-61
2022/07/15 02:03:21;;;;;;;4.00;2.40;;;18.90;73.00;;;19.35;54.53;95009.13;5048338;28;20447;-57
2022/07/15 02:05:48;;;;;;;12.07;2.30;;;18.90;73.40;;;19.32;54.25;95014.84;5047755;28;20475;-60
2022/07/15 02:08:15;;;;;;;5.53;1.90;;;18.80;73.00;;;19.28;54.23;95014.38;5047839;28;20460;-59
2022/07/15 02:10:44;;;;;;;5.37;2.53;;;18.90;73.30;;;19.26;54.24;95013.75;5048366;28;20479;-58
2022/07/15 02:13:12;;;;;;;6.20;3.20;;;18.80;73.60;;;19.25;54.54;95009.44;5048285;28;20462;-61
2022/07/15 02:15:40;;;;;;;8.80;2.70;;;18.80;74.00;;;19.25;54.27;95012.09;5047765;28;20494;-61
2022/07/15 02:18:07;;;;;;;3.10;2.70;;;18.80;73.90;;;19.24;54.76;95010.47;5048145;28;20544;-59
2022/07/15 02:20:35;;;;;;;3.23;1.77;;;18.80;74.00;;;19.21;54.82;95021.50;5047795;28;20533;-61
2022/07/15 02:23:02;;;;;;;6.73;2.43;;;18.80;74.50;;;19.15;54.85;95014.28;5048121;28;20494;-61
2022/07/15 02:25:31;;;;;;;4.43;2.27;;;18.80;74.60;;;19.12;54.90;95014.66;5046903;28;20467;-60
2022/07/15 02:28:01;;;;;;;4.97;2.60;;;18.70;74.60;;;19.09;54.90;95015.03;5048030;28;20456;-59
2022/07/15 02:30:30;;;;;;;5.70;3.40;;;18.70;74.70;;;19.06;55.02;95010.88;5046416;28;20545;-58
2022/07/15 02:32:58;;;;;;;7.27;3.97;;;18.70;74.90;;;19.02;54.70;95014.13;5047610;28;20828;-60
2022/07/15 02:35:25;;;;;;;4.63;3.20;;;18.60;74.50;;;18.95;54.87;95009.53;5047144;28;20495;-60
2022/07/15 02:37:52;;;;;;;15.10;2.50;;;18.60;74.40;;;18.88;54.73;95013.97;5047585;28;20456;-58
2022/07/15 02:40:20;;;;;;;3.33;2.50;;;18.50;74.80;;;18.80;55.00;95012.19;5047606;28;20459;-59
2022/07/15 02:42:49;;;;;;;9.00;2.80;;;18.40;74.50;;;18.73;55.39;95008.66;5047505;28;20474;-59
2022/07/15 02:45:18;;;;;;;7.27;2.30;;;18.30;74.90;;;18.67;54.78;95009.41;5044653;28;20448;-61
2022/07/15 02:47:45;;;;;;;3.13;2.30;;;18.30;74.80;;;18.60;55.24;95003.97;5047853;28;20483;-59
2022/07/15 02:50:12;;;;;;;6.73;2.10;;;18.20;75.20;;;18.53;55.69;95013.75;5048153;28;20537;-61
2022/07/15 02:52:39;;;;;;;3.53;2.03;;;18.20;75.70;;;18.48;55.59;95015.28;5047133;28;20451;-61
2022/07/15 02:55:08;;;;;;;9.57;2.53;;;18.10;75.60;;;18.43;55.43;95016.69;5047493;28;20495;-59
2022/07/15 02:57:35;;;;;;;6.67;2.07;;;18.00;76.10;;;18.41;55.17;95017.88;5047211;28;20514;-59
2022/07/15 03:00:07;;;;;;;4.43;2.20;;;18.00;75.80;;;18.37;55.92;95017.44;5047874;28;20651;-58
2022/07/15 03:02:35;;;;;;;2.87;1.73;;;18.00;76.40;;;18.35;56.05;95016.78;5047447;28;20451;-58
2022/07/15 03:05:03;;;;;;;9.37;2.30;;;17.90;77.90;;;18.36;56.30;95021.09;5046532;28;20626;-60
2022/07/15 03:07:30;;;;;;;3.33;2.10;;;17.90;77.50;;;18.39;56.31;95015.41;5047191;28;20448;-63
2022/07/15 03:09:57;;;;;;;7.63;1.83;;;18.00;77.70;;;18.42;56.46;95015.03;5047470;28;20456;-59
2022/07/15 03:12:25;;;;;;;7.20;2.37;;;18.00;77.70;;;18.44;56.27;95023.66;5046463;28;20476;-58
2022/07/15 03:14:52;;;;;;;1.80;1.60;;;18.00;77.50;;;18.48;56.06;95018.78;5046774;28;20488;-61
2022/07/15 03:17:19;;;;;;;2.93;1.70;;;18.00;77.40;;;18.50;56.09;95021.25;5046212;28;20522;-58
2022/07/15 03:19:48;;;;;;;1.63;1.53;;;18.00;77.10;;;18.52;55.58;95017.41;5044640;28;20509;-59
2022/07/15 03:22:15;;;;;;;2.70;1.50;;;18.10;77.00;;;18.54;55.82;95011.88;5046616;28;20464;-58
2022/07/15 03:24:42;;;;;;;5.20;1.67;;;18.10;76.70;;;18.55;55.54;95014.38;5046460;28;20602;-61
2022/07/15 03:27:10;;;;;;;6.30;1.57;;;18.10;76.30;;;18.56;55.14;95008.03;5044049;28;20471;-58
2022/07/15 03:29:37;;;;;;;3.27;1.43;;;18.10;75.90;;;18.57;54.70;95009.66;5046904;28;20843;-60
2022/07/15 03:32:05;;;;;;;1.67;1.57;;;18.10;76.60;;;18.57;54.70;95006.19;5046477;28;20472;-60
2022/07/15 03:34:33;;;;;;;2.13;1.40;;;18.10;75.80;;;18.58;55.07;95002.53;5045579;28;20506;-61
2022/07/15 03:37:02;;;;;;;2.10;1.50;;;18.10;75.60;;;18.62;54.63;95009.13;5046116;28;20533;-56
2022/07/15 03:39:29;;;;;;;3.73;1.47;;;18.20;75.70;;;18.61;54.78;95005.63;5046377;28;20509;-61
2022/07/15 03:41:56;;;;;;;2.60;1.50;;;18.20;75.70;;;18.62;55.04;95009.13;5044413;28;20476;-60
2022/07/15 03:44:24;;;;;;;1.73;1.47;;;18.20;75.70;;;18.62;54.71;95015.28;5046735;28;20449;-61
2022/07/15 03:46:51;;;;;;;1.60;1.40;;;18.20;75.70;;;18.64;55.16;95010.59;5046581;28;20471;-60
2022/07/15 03:49:18;;;;;;;6.60;1.70;;;18.20;75.70;;;18.65;55.05;95011.41;5046107;28;20465;-58
2022/07/15 03:51:46;;;;;;;6.20;1.87;;;18.20;75.70;;;18.67;55.02;95008.56;5046393;28;20526;-61
2022/07/15 03:54:14;;;;;;;5.77;1.83;;;18.20;75.70;;;18.67;54.71;95016.53;5045718;28;20486;-57
2022/07/15 03:56:42;;;;;;;7.83;1.60;;;18.20;76.00;;;18.64;55.30;95017.75;5045866;28;20632;-62
2022/07/15 03:59:09;;;;;;;1.90;1.70;;;18.20;76.30;;;18.59;55.24;95015.66;5044366;28;20510;-59
2022/07/15 04:01:36;;;;;;;4.13;2.30;;;18.20;76.50;;;18.54;55.61;95030.53;5045578;28;21024;-59
2022/07/15 04:04:03;;;;;;;3.33;1.50;;;18.10;76.90;;;18.47;55.16;95022.47;5045061;28;20899;-58
2022/07/15 04:06:31;;;;;;;4.53;1.60;;;18.10;76.70;;;18.42;56.06;95020.34;5046191;28;20914;-59
2022/07/15 04:08:58;;;;;;;5.13;1.90;;;18.00;77.10;;;18.41;55.59;95016.03;5045854;28;20508;-58
2022/07/15 04:11:27;;;;;;;2.07;1.97;;;18.00;76.70;;;18.43;55.50;95021.19;5045983;28;20558;-59
2022/07/15 04:13:54;;;;;;;2.40;2.20;;;18.00;77.50;;;18.48;55.33;95023.28;5046140;28;20460;-59
2022/07/15 04:16:21;;;;;;;8.00;2.63;;;18.00;77.00;;;18.53;55.37;95020.88;5045680;28;20491;-59
2022/07/15 04:18:51;;;;;;;5.50;2.50;;;18.10;77.20;;;18.58;55.54;95023.84;5045475;28;20452;-60
2022/07/15 04:21:18;;;;;;;4.77;2.10;;;18.10;77.20;;;18.62;55.43;95020.63;5045519;28;21239;-60
2022/07/15 04:23:45;;;;;;;7.37;3.00;;;18.10;77.10;;;18.67;55.51;95024.53;5045388;28;20456;-60
2022/07/15 04:26:12;;;;;;;6.70;2.77;;;18.20;77.20;;;18.69;55.22;95019.88;5043991;28;20468;-61
2022/07/15 04:28:41;;;;;;;6.50;2.00;;;18.20;77.30;;;18.72;55.54;95024.81;5043018;28;20455;-59
2022/07/15 04:31:08;;;;;;;2.80;1.73;;;18.30;77.20;;;18.75;55.46;95016.47;5044994;28;20475;-58
2022/07/15 04:33:36;;;;;;;2.80;1.73;;;18.30;77.40;;;18.80;55.56;95019.38;5044822;28;20448;-59
2022/07/15 04:36:03;;;;;;;2.23;1.90;;;18.30;77.20;;;18.84;55.41;95018.00;5045420;28;20499;-60
2022/07/15 04:38:30;;;;;;;7.53;1.87;;;18.40;77.20;;;18.88;55.49;95019.28;5045209;28;20466;-60
2022/07/15 04:40:58;;;;;;;2.30;1.83;;;18.40;77.10;;;18.93;55.11;95024.06;5044750;28;21135;-60
2022/07/15 04:43:25;;;;;;;17.40;2.63;;;18.50;77.00;;;18.97;55.32;95020.84;5045256;28;20535;-60
2022/07/15 04:45:53;;;;;;;5.10;2.13;;;18.50;77.00;;;19.02;55.30;95025.59;5045461;28;21149;-58
2022/07/15 04:51:05;;;;;;;10.00;2.00;;;18.60;76.80;;;19.11;54.56;95029.81;5044822;28;20467;-59
2022/07/15 04:53:33;;;;;;;3.63;2.23;;;18.60;76.80;;;19.15;55.12;95030.28;5045382;28;20452;-62
2022/07/15 04:56:00;;;;;;;6.37;2.23;;;18.70;77.10;;;19.20;55.08;95027.84;5045116;28;20491;-61
2022/07/15 04:58:27;;;;;;;2.13;1.90;;;18.70;76.90;;;19.26;55.08;95020.94;5044944;28;21038;-60
2022/07/15 05:00:56;;;;;;;9.03;2.50;;;18.80;77.00;;;19.30;54.57;95028.38;5044764;28;20472;-58
2022/07/15 05:03:23;;;;;;;11.80;3.23;;;18.90;77.20;;;19.38;54.77;95034.59;5043244;28;20463;-58
2022/07/15 05:05:50;;;;;;;3.33;1.70;;;18.90;77.60;;;19.46;55.26;95037.16;5046893;28;20479;-61
2022/07/15 05:08:18;;;;;;;3.93;1.87;;;19.00;77.90;;;19.51;55.21;95034.72;5044316;28;20456;-61
2022/07/15 05:10:45;;;;;;;3.83;1.70;;;19.00;77.50;;;19.53;55.03;95035.34;5043026;28;20468;-61
2022/07/15 05:13:12;;;;;;;2.63;2.40;;;19.00;78.20;;;19.56;55.34;95037.63;5043331;28;20530;-56
2022/07/15 05:15:40;;;;;;;4.30;2.20;;;19.10;77.50;;;19.59;54.78;95031.91;5043697;28;20499;-58
2022/07/15 05:18:08;;;;;;;2.50;2.30;;;19.10;77.70;;;19.62;54.83;95030.72;5043794;28;20948;-59
2022/07/15 05:20:35;;;;;;;8.03;2.50;;;19.20;77.70;;;19.65;54.69;95031.13;5043210;28;20565;-61
2022/07/15 05:23:03;;;;;;;3.83;2.60;;;19.20;77.70;;;19.74;54.81;95021.16;5043509;28;20447;-62
2022/07/15 05:25:30;;;;;;;3.80;3.03;;;19.30;77.80;;;19.84;54.30;95024.34;5043195;28;20464;-58
2022/07/15 05:27:57;;;;;;;3.93;2.63;;;19.30;77.40;;;19.99;54.18;95021.59;5045432;28;20545;-61
2022/07/15 05:30:24;;;;;;;8.00;3.13;;;19.40;77.10;;;20.16;54.39;95024.78;5044702;28;20549;-59
2022/07/15 05:32:52;;;;;;;3.97;2.80;;;19.60;77.20;;;20.35;54.40;95025.91;5043932;28;20460;-61
2022/07/15 05:35:21;;;;;;;4.93;2.90;;;19.80;76.90;;;20.57;53.52;95017.81;5044895;28;20556;-62
2022/07/15 05:37:48;;;;;;;4.27;3.10;;;20.00;76.70;;;20.77;53.33;95018.78;5045228;28;20537;-61
2022/07/15 05:40:16;;;;;;;8.13;3.13;;;20.20;76.10;;;21.03;52.88;95021.72;5045277;28;20451;-60
2022/07/15 05:42:43;;;;;;;7.83;3.30;;;20.40;75.80;;;21.27;52.79;95029.22;5045263;28;20487;-62
2022/07/15 05:45:11;;;;;;;9.13;3.73;;;20.60;75.30;;;21.51;52.12;95035.03;5043765;28;20448;-59
2022/07/15 05:47:38;;;;;;;5.40;3.70;;;20.80;74.60;;;21.75;51.96;95030.97;5045150;28;20451;-61
2022/07/15 05:50:06;;;;;;;4.10;2.87;;;21.10;74.50;;;22.02;51.50;95030.94;5044277;28;20456;-60
2022/07/15 05:52:36;;;;;;;7.43;3.20;;;21.30;73.80;;;22.26;51.06;95036.69;5044914;28;20452;-62
2022/07/15 05:55:04;;;;;;;6.50;4.30;;;21.60;73.30;;;22.51;50.61;95031.50;5045143;28;20494;-60
2022/07/15 05:57:32;;;;;;;6.90;2.90;;;21.80;72.50;;;22.72;50.68;95025.88;5044952;28;20459;-57
2022/07/15 06:00:00;;;;;;;8.27;2.93;;;22.00;72.10;;;22.96;50.57;95026.22;5044749;28;20505;-60
2022/07/15 06:02:28;;;;;;;4.67;3.60;;;22.30;71.70;;;23.18;49.87;95021.38;5041694;28;20555;-60
2022/07/15 06:04:55;;;;;;;8.57;3.30;;;22.50;72.30;;;23.40;49.29;95029.09;5044856;28;20954;-59
2022/07/15 06:07:23;;;;;;;7.80;2.83;;;22.70;70.30;;;23.60;48.60;95032.47;5044417;28;20479;-57
2022/07/15 06:09:52;;;;;;;5.80;2.53;;;22.90;69.70;;;23.80;48.33;95032.31;5044816;28;20598;-60
2022/07/15 06:12:19;;;;;;;2.90;2.60;;;23.10;69.30;;;24.01;48.76;95024.94;5044634;28;20467;-62
2022/07/15 06:14:46;;;;;;;7.13;2.60;;;23.30;68.80;;;24.23;48.10;95029.94;5044485;28;20521;-58
2022/07/15 06:17:14;;;;;;;8.70;2.10;;;23.50;68.00;;;24.42;47.03;95028.09;5047233;28;20464;-60
2022/07/15 06:19:42;;;;;;;7.53;3.00;;;23.70;67.30;;;24.61;47.19;95026.28;5049123;28;21108;-61
2022/07/15 06:22:09;;;;;;;3.07;2.60;;;23.90;66.60;;;24.84;46.62;95028.28;5049973;28;21081;-61
2022/07/15 06:24:36;;;;;;;14.33;2.47;;;24.10;66.30;;;25.03;46.23;95027.22;5048518;28;20517;-58
2022/07/15 06:27:05;;;;;;;3.30;2.67;;;24.30;65.50;;;25.23;45.92;95026.13;5047144;28;20473;-59
2022/07/15 06:29:33;;;;;;;4.13;2.33;;;24.50;64.70;;;25.41;45.74;95030.69;5048632;28;20867;-62
2022/07/15 06:32:00;;;;;;;9.73;2.90;;;24.70;64.90;;;25.57;45.15;95029.22;5043952;28;20511;-59
2022/07/15 06:34:27;;;;;;;12.40;2.57;;;24.80;64.20;;;25.69;45.11;95022.00;5048420;28;20462;-62
2022/07/15 06:36:55;;;;;;;22.20;3.00;;;24.90;63.60;;;25.77;44.74;95029.72;5048300;28;20499;-62
2022/07/15 06:39:22;;;;;;;8.33;2.97;;;25.10;62.90;;;25.83;44.14;95028.00;5048219;28;21120;-62
2022/07/15 06:41:49;;;;;;;3.00;2.80;;;25.10;62.10;;;25.91;44.39;95024.94;5048065;28;20467;-62
2022/07/15 06:44:18;;;;;;;6.13;2.77;;;25.10;62.10;;;26.06;44.49;95018.34;5048069;28;20456;-64
2022/07/15 06:46:45;;;;;;;20.00;2.70;;;25.30;62.10;;;26.22;43.99;95014.13;5048313;28;20495;-59
2022/07/15 06:49:12;;;;;;;3.23;2.00;;;25.50;61.90;;;26.35;44.23;95016.56;5048378;28;20452;-58
2022/07/15 06:51:39;;;;;;;12.73;2.27;;;25.60;61.50;;;26.51;43.52;95009.66;5048449;28;21018;-62
2022/07/15 06:54:07;;;;;;;6.27;2.33;;;25.70;61.20;;;26.68;43.55;95012.47;5046283;28;20463;-62
2022/07/15 06:56:34;;;;;;;3.20;1.83;;;25.90;60.90;;;26.87;43.23;95017.72;5048022;28;20935;-57
2022/07/15 06:59:02;;;;;;;6.30;2.60;;;26.10;60.20;;;27.01;42.81;95019.09;5048030;28;20451;-63
2022/07/15 07:01:30;;;;;;;4.77;2.47;;;26.20;59.60;;;27.13;42.87;95016.34;5046657;28;20537;-59
2022/07/15 07:03:57;;;;;;;8.27;2.53;;;26.30;59.50;;;27.30;42.94;95009.13;5045973;28;20513;-58
2022/07/15 07:06:26;;;;;;;12.73;3.10;;;26.50;59.60;;;27.52;42.76;95016.56;5047901;28;20464;-60
2022/07/15 07:08:53;;;;;;;9.53;2.60;;;26.70;59.50;;;27.75;42.33;95014.78;5047401;28;20478;-62
2022/07/15 07:11:20;;;;;;;2.50;2.30;;;26.90;58.90;;;27.97;41.67;95012.22;5047422;28;20526;-62
2022/07/15 07:13:47;;;;;;;11.13;3.00;;;27.10;58.50;;;28.19;41.55;95010.41;5047797;28;20455;-62
2022/07/15 07:16:15;;;;;;;6.60;2.43;;;27.40;58.40;;;28.41;41.03;95009.63;5046097;28;20495;-58
2022/07/15 07:18:45;;;;;;;3.30;2.40;;;27.60;57.70;;;28.63;41.13;95008.88;5046428;28;20452;-61
2022/07/15 07:21:12;;;;;;;3.83;1.87;;;27.80;57.20;;;28.84;40.92;95002.66;5046843;28;20474;-62
2022/07/15 07:23:40;;;;;;;16.53;2.50;;;28.00;56.60;;;29.06;39.96;95001.84;5047156;28;20455;-59
2022/07/15 07:26:07;;;;;;;9.10;2.70;;;28.20;56.00;;;29.31;39.77;95001.34;5047504;28;20528;-62
2022/07/15 07:28:35;;;;;;;3.30;2.70;;;28.40;55.40;;;29.52;39.68;94999.69;5045529;28;20451;-62
2022/07/15 07:31:02;;;;;;;6.00;1.93;;;28.70;55.10;;;29.71;39.14;95004.72;5045994;28;21018;-59
2022/07/15 07:33:29;;;;;;;5.30;2.40;;;28.90;54.50;;;29.88;38.75;95005.44;5046516;28;20447;-63
2022/07/15 07:35:58;;;;;;;4.17;2.50;;;29.10;54.00;;;30.03;37.74;95000.16;5047038;28;20495;-62
2022/07/15 07:38:25;;;;;;;5.63;2.63;;;29.20;53.40;;;30.19;38.29;95000.25;5045758;28;20913;-63
2022/07/15 07:40:52;;;;;;;4.30;2.50;;;29.40;52.90;;;30.38;37.29;95004.22;5046951;28;20467;-59
2022/07/15 07:43:20;;;;;;;4.70;2.67;;;29.50;52.80;;;30.51;37.16;95007.56;5046521;28;20972;-62
2022/07/15 07:45:47;;;;;;;3.20;2.50;;;29.70;52.30;;;30.62;36.63;95006.53;5046906;28;20274;-58
2022/07/15 07:48:16;;;;;;;14.70;2.87;;;29.80;51.80;;;30.64;36.91;95004.38;5045079;28;20720;-62
2022/07/15 07:50:44;;;;;;;3.40;2.90;;;29.90;51.70;;;30.71;36.40;95006.88;5047011;28;20233;-56
2022/07/15 07:53:12;;;;;;;5.20;2.40;;;29.90;51.40;;;30.88;36.37;94998.53;5047740;28;20262;-61
2022/07/15 07:55:40;;;;;;;18.57;3.00;;;30.00;50.80;;;31.08;36.68;94995.13;5046688;28;20487;-57
2022/07/15 07:58:07;;;;;;;5.03;2.63;;;30.20;50.90;;;31.28;36.14;94987.03;5047293;28;20645;-58
2022/07/15 08:00:35;;;;;;;5.63;2.60;;;30.40;50.50;;;31.50;36.24;94988.72;5045808;28;20212;-62
2022/07/15 08:03:02;;;;;;;7.23;1.70;;;30.60;50.40;;;31.70;35.45;94996.09;5042188;28;20201;-59
2022/07/15 08:05:29;;;;;;;10.20;2.63;;;30.80;49.80;;;31.91;35.52;94996.91;5046779;28;20228;-58
2022/07/15 08:08:09;;;;;;;5.23;2.43;;;31.00;49.40;;;32.07;34.50;94992.31;5046922;28;20208;-62
2022/07/15 08:10:37;;;;;;;2.67;2.27;;;31.20;48.60;;;32.18;34.65;94990.44;5044894;28;20233;-58
2022/07/15 08:13:05;;;;;;;2.93;2.47;;;31.30;48.60;;;32.34;34.38;94983.06;5046820;28;20270;-59
2022/07/15 08:15:32;;;;;;;3.05;2.35;;;31.50;48.40;;;32.56;34.16;94982.72;5046471;28;20271;-61
2022/07/15 08:18:00;;;;;;;3.30;2.15;;;31.70;48.20;;;32.78;34.36;94984.34;5043634;28;20201;-63
2022/07/15 08:20:27;;;;;;;4.40;1.92;;;31.90;47.90;;;33.00;34.10;94979.38;5046404;28;20229;-62
2022/07/15 08:22:58;;;;;;;9.80;2.03;;;32.10;47.70;;;33.22;33.58;94984.47;5047097;28;20647;-59
2022/07/15 08:25:26;;;;;;;7.65;2.95;;;32.30;47.00;;;33.26;32.80;94979.25;5043724;28;20315;-61
2022/07/15 08:27:56;;;;;;;3.90;2.38;;;32.50;46.20;;;33.18;32.63;94983.38;5046141;28;20262;-62
2022/07/15 08:30:23;;;;;;;6.80;2.40;;;32.40;45.60;;;33.12;32.73;94980.94;5046361;28;20259;-61
2022/07/15 08:32:50;;;;;;;15.13;2.28;;;32.30;45.50;;;33.18;32.76;94977.09;5044353;28;20262;-59
2022/07/15 08:35:18;;;;;;;4.80;2.60;;;32.30;45.80;;;33.29;32.55;94977.88;5046220;28;20216;-59
2022/07/15 08:37:45;;;;;;;4.53;2.22;;;32.40;45.60;;;33.31;32.64;94976.50;5044828;28;20229;-63
2022/07/15 08:40:13;;;;;;;4.53;3.00;;;32.50;45.60;;;33.36;32.27;94972.94;5045875;28;20255;-58
2022/07/15 08:42:43;;;;;;;7.13;2.30;;;32.50;45.40;;;33.52;31.87;94971.72;5045495;28;20208;-61
2022/07/15 08:45:12;;;;;;;2.05;1.83;;;32.70;44.30;;;33.74;31.39;94978.72;5046156;28;20288;-60
2022/07/15 08:47:41;;;;;;;1.83;1.67;;;32.80;44.30;;;33.75;31.47;94969.44;5045792;28;20208;-62
2022/07/15 08:50:11;;;;;;;3.22;1.80;;;32.90;43.40;;;33.74;30.83;94967.81;5045480;28;20200;-59
2022/07/15 08:52:38;;;;;;;8.52;1.88;;;32.90;43.20;;;33.92;30.75;94969.84;5043577;28;20286;-58
2022/07/15 08:55:07;;;;;;;7.13;2.70;;;33.00;43.20;;;34.15;30.77;94967.47;5045902;28;20197;-63
2022/07/15 08:57:34;;;;;;;3.42;2.30;;;33.30;42.90;;;34.38;29.99;94967.81;5044900;28;20225;-62
2022/07/15 09:00:01;;;;;;;9.43;1.85;;;33.50;41.50;;;34.57;29.57;94971.44;5046021;28;20225;-62
2022/07/15 09:02:30;;;;;;;6.60;2.20;;;33.70;41.70;;;34.78;29.24;94965.78;5044363;28;20282;-63
2022/07/15 09:05:22;;;;;;;5.07;1.98;;;33.90;41.30;;;34.87;28.09;94965.97;5042319;28;20666;-58
2022/07/15 09:08:01;;;;;;;3.42;1.48;;;34.00;40.30;;;34.82;28.62;94964.09;5044949;28;20224;-62
2022/07/15 09:10:47;;;;;;;3.53;1.70;;;34.00;40.60;;;34.92;27.88;94961.25;5045236;28;20216;-62
2022/07/15 09:13:26;;;;;;;6.10;1.52;;;34.00;39.60;;;34.87;28.38;94958.56;5045529;28;20196;-62
2022/07/15 09:15:54;;;;;;;13.15;2.17;;;34.00;40.00;;;34.87;28.83;94964.03;5045324;28;20223;-58
2022/07/15 09:18:24;;;;;;;2.30;1.55;;;34.00;39.80;;;34.94;28.69;94963.69;5043148;28;20300;-61
2022/07/15 09:20:51;;;;;;;3.15;2.10;;;34.00;40.10;;;35.03;28.78;94952.91;5045456;28;20228;-59
2022/07/15 09:23:29;;;;;;;1.80;1.70;;;34.20;40.00;;;35.11;28.30;94950.34;5045147;28;20204;-61
2022/07/15 09:25:56;;;;;;;2.75;1.50;;;34.20;39.50;;;35.24;28.45;94953.47;5039376;28;20303;-60
2022/07/15 09:28:36;;;;;;;7.85;3.88;;;34.30;39.30;;;35.40;28.21;94954.91;5045203;28;20256;-62
2022/07/15 09:33:51;;;;;;;9.07;5.85;;;34.70;39.10;;;35.76;27.57;94957.16;5042549;28;20322;-61
2022/07/15 09:36:20;;;;;;;9.20;5.22;;;34.90;38.70;;;35.90;27.35;94954.47;5044730;28;20255;-59
2022/07/15 09:38:49;;;;;;;3.58;1.90;;;35.00;38.80;;;36.01;27.81;94950.44;5043551;28;20224;-63
2022/07/15 09:41:29;;;;;;;3.97;1.83;;;35.20;38.40;;;36.11;27.29;94954.09;5044809;28;20221;-62
2022/07/15 09:43:58;;;;;;;4.93;1.70;;;35.20;37.50;;;36.16;27.00;94957.59;5044556;28;20693;-62
2022/07/15 09:46:27;;;;;;;11.38;2.28;;;35.40;37.60;;;36.24;27.28;94956.06;5044146;28;20227;-62
2022/07/15 09:48:56;;;;;;;3.50;1.73;;;35.40;37.50;;;36.36;26.41;94956.44;5044165;28;20228;-58
2022/07/15 09:51:24;;;;;;;4.63;1.63;;;35.50;37.40;;;36.50;26.70;94952.88;5046781;28;20212;-60
2022/07/15 09:53:51;;;;;;;3.80;2.15;;;35.60;37.30;;;36.57;26.40;94951.38;5047176;28;20197;-61
2022/07/15 09:56:23;;;;;;;2.85;1.35;;;35.70;37.00;;;36.50;26.27;94942.75;5046705;28;20240;-62
2022/07/15 09:58:50;;;;;;;7.93;1.45;;;35.70;36.30;;;36.17;24.87;94950.97;5047353;28;20752;-62
2022/07/15 10:01:18;;;;;;;2.63;1.90;;;35.50;34.60;;;35.71;25.39;94954.44;5047828;28;20238;-58
2022/07/15 10:03:45;;;;;;;3.42;1.98;;;35.20;35.40;;;35.27;25.60;94942.78;5048954;28;20432;-62
2022/07/15 10:06:16;;;;;;;27.10;2.45;;;34.80;35.80;;;35.08;26.08;94940.00;5048698;28;20286;-58
2022/07/15 10:08:46;;;;;;;3.47;1.63;;;34.50;36.20;;;34.99;26.06;94937.09;5048352;28;20300;-58
2022/07/15 10:11:14;;;;;;;3.15;1.80;;;34.40;36.20;;;35.08;26.47;94933.72;5047313;28;20224;-61
2022/07/15 10:14:16;;;;;;;3.40;3.10;;;34.30;36.20;;;35.25;26.08;94930.50;5041471;28;20204;-63
2022/07/15 10:17:35;;;;;;;2.75;2.55;;;34.40;36.40;;;35.39;25.27;94930.59;5045689;28;20228;-59
2022/07/15 10:20:48;;;;;;;2.10;1.63;;;34.50;36.20;;;35.32;25.33;94923.56;5046427;28;20205;-63
2022/07/15 10:23:56;;;;;;;12.10;2.00;;;34.50;34.40;;;35.23;25.77;94921.75;5048035;28;20592;-60
2022/07/15 10:26:34;;;;;;;5.38;1.48;;;34.40;35.40;;;35.30;25.93;94923.03;4979813;28;20798;-58
2022/07/15 10:29:05;;;;;;;1.85;1.75;;;34.50;35.40;;;35.40;25.13;94934.94;5038603;28;20280;-62
2022/07/15 10:31:33;;;;;;;2.72;1.58;;;34.60;35.20;;;35.48;25.71;94932.34;5048642;28;20342;-59
2022/07/15 10:34:20;;;;;;;3.88;1.45;;;34.60;36.30;;;35.57;25.67;94923.47;5045181;28;20197;-62
2022/07/15 10:37:02;;;;;;;3.67;2.33;;;34.70;35.30;;;35.56;25.47;94919.13;5048030;28;20239;-59